createdAt,value
2022-08-30T00:01:06.563Z,97253.75
2022-08-30T00:03:41.056Z,97249.63
2022-08-30T00:06:08.736Z,97248.63
2022-08-30T00:08:36.924Z,97257.44
2022-08-30T00:11:05.745Z,97266.47
2022-08-30T00:13:32.319Z,97252.25
2022-08-30T00:15:58.948Z,97256.94
2022-08-30T00:18:25.707Z,97262.91
2022-08-30T00:20:55.805Z,97261.13
2022-08-30T00:23:22.674Z,97257.78
2022-08-30T00:25:50.156Z,97243.53
2022-08-30T00:28:17.000Z,97243.28
2022-08-30T00:30:44.984Z,97246.38
2022-08-30T00:33:12.735Z,97246.38
2022-08-30T00:35:40.250Z,97244.81
2022-08-30T00:38:10.444Z,97237.81
2022-08-30T00:40:37.922Z,97245.13
2022-08-30T00:43:08.786Z,97249.66
2022-08-30T00:45:40.872Z,97246.06
2022-08-30T00:48:07.793Z,97254.63
2022-08-30T00:50:40.137Z,97260.34
2022-08-30T00:53:10.547Z,97260.50
2022-08-30T00:55:38.991Z,97254.59
2022-08-30T00:58:13.091Z,97261.56
2022-08-30T01:00:40.313Z,97263.13
2022-08-30T01:03:08.504Z,97262.19
2022-08-30T01:05:38.703Z,97260.97
2022-08-30T01:08:06.521Z,97258.41
2022-08-30T01:10:35.820Z,97265.41
2022-08-30T01:13:03.534Z,97261.28
2022-08-30T01:15:32.668Z,97261.00
2022-08-30T01:17:59.476Z,97252.94
2022-08-30T01:20:38.279Z,97267.22
2022-08-30T01:23:12.551Z,97261.50
2022-08-30T01:25:42.413Z,97258.66
2022-08-30T01:28:14.204Z,97252.44
2022-08-30T01:30:42.823Z,97248.31
2022-08-30T01:33:11.098Z,97258.47
2022-08-30T01:36:00.502Z,97257.47
2022-08-30T01:38:33.866Z,97255.44
2022-08-30T01:41:15.455Z,97254.69
2022-08-30T01:43:42.858Z,97259.91
2022-08-30T01:46:11.991Z,97257.59
2022-08-30T01:48:42.192Z,97260.22
2022-08-30T01:51:17.901Z,97260.75
2022-08-30T01:53:45.747Z,97252.50
2022-08-30T01:56:14.107Z,97253.56
2022-08-30T01:58:41.430Z,97258.50
2022-08-30T02:01:09.137Z,97258.97
2022-08-30T02:03:36.448Z,97261.34
2022-08-30T02:06:04.254Z,97260.03
2022-08-30T02:08:31.702Z,97266.56
2022-08-30T02:11:01.246Z,97257.25
2022-08-30T02:15:54.902Z,97245.06
2022-08-30T02:18:23.451Z,97255.97
2022-08-30T02:20:50.201Z,97263.50
2022-08-30T02:23:17.374Z,97252.88
2022-08-30T02:25:44.929Z,97259.16
2022-08-30T02:28:12.038Z,97258.91
2022-08-30T02:30:42.848Z,97261.00
2022-08-30T02:33:09.616Z,97260.69
2022-08-30T02:35:36.273Z,97265.66
2022-08-30T02:38:03.994Z,97260.69
2022-08-30T02:40:30.986Z,97261.75
2022-08-30T02:42:57.757Z,97256.31
2022-08-30T02:45:25.501Z,97249.34
2022-08-30T02:47:51.998Z,97246.78
2022-08-30T02:50:18.796Z,97260.28
2022-08-30T02:52:48.190Z,97256.38
2022-08-30T02:55:15.749Z,97242.41
2022-08-30T02:57:43.638Z,97251.22
2022-08-30T03:00:13.081Z,97249.41
2022-08-30T03:02:40.633Z,97256.16
2022-08-30T03:05:13.259Z,97247.88
2022-08-30T03:07:41.162Z,97249.72
2022-08-30T03:10:08.831Z,97244.28
2022-08-30T03:12:35.809Z,97243.50
2022-08-30T03:15:02.553Z,97246.09
2022-08-30T03:17:29.888Z,97246.34
2022-08-30T03:19:56.346Z,97247.88
2022-08-30T03:22:23.286Z,97256.16
2022-08-30T03:24:49.868Z,97256.16
2022-08-30T03:27:16.477Z,97259.00
2022-08-30T03:29:43.097Z,97265.25
2022-08-30T03:32:09.740Z,97259.56
2022-08-30T03:34:36.373Z,97260.06
2022-08-30T03:37:02.971Z,97260.31
2022-08-30T03:39:29.583Z,97261.66
2022-08-30T03:41:56.183Z,97269.66
2022-08-30T03:44:23.139Z,97274.31
2022-08-30T03:46:50.262Z,97273.56
2022-08-30T03:49:17.713Z,97266.56
2022-08-30T03:51:44.383Z,97267.81
2022-08-30T03:54:11.205Z,97270.94
2022-08-30T03:56:38.266Z,97278.69
2022-08-30T03:59:05.270Z,97274.56
2022-08-30T04:01:32.346Z,97278.97
2022-08-30T04:03:59.049Z,97273.81
2022-08-30T04:06:25.703Z,97276.91
2022-08-30T04:08:52.349Z,97276.91
2022-08-30T04:11:19.002Z,97285.19
2022-08-30T04:13:45.665Z,97285.97
2022-08-30T04:16:12.798Z,97284.91
2022-08-30T04:18:39.428Z,97295.28
2022-08-30T04:21:06.757Z,97304.34
2022-08-30T04:23:33.303Z,97306.91
2022-08-30T04:26:00.071Z,97307.19
2022-08-30T04:28:26.791Z,97296.84
2022-08-30T04:30:53.552Z,97307.19
2022-08-30T04:33:20.210Z,97308.22
2022-08-30T04:35:49.425Z,97307.19
2022-08-30T04:38:17.377Z,97312.41
2022-08-30T04:40:47.246Z,97310.31
2022-08-30T04:43:14.905Z,97311.09
2022-08-30T04:45:42.124Z,97319.13
2022-08-30T04:48:08.897Z,97313.69
2022-08-30T04:50:35.514Z,97317.84
2022-08-30T04:53:02.081Z,97313.69
2022-08-30T04:55:28.711Z,97319.91
2022-08-30T04:57:55.277Z,97321.19
2022-08-30T05:00:21.847Z,97318.34
2022-08-30T05:02:49.123Z,97321.69
2022-08-30T05:05:34.366Z,97321.41
2022-08-30T05:08:01.076Z,97317.53
2022-08-30T05:10:27.766Z,97327.09
2022-08-30T05:12:54.773Z,97326.81
2022-08-30T05:15:22.480Z,97330.44
2022-08-30T05:17:49.423Z,97328.63
2022-08-30T05:20:16.227Z,97334.06
2022-08-30T05:22:50.350Z,97327.84
2022-08-30T05:25:21.032Z,97333.28
2022-08-30T05:27:47.892Z,97326.53
2022-08-30T05:30:16.340Z,97340.00
2022-08-30T05:32:43.601Z,97335.78
2022-08-30T05:35:12.230Z,97337.03
2022-08-30T05:37:39.383Z,97335.75
2022-08-30T05:40:11.100Z,97329.78
2022-08-30T05:42:39.095Z,97331.28
2022-08-30T05:45:06.391Z,97330.47
2022-08-30T05:47:32.905Z,97327.25
2022-08-30T05:49:59.793Z,97331.69
2022-08-30T05:52:26.457Z,97329.31
2022-08-30T05:54:56.137Z,97335.94
2022-08-30T05:57:22.775Z,97343.88
2022-08-30T05:59:49.406Z,97334.81
2022-08-30T06:02:16.087Z,97350.53
2022-08-30T06:04:42.690Z,97346.34
2022-08-30T06:07:12.935Z,97352.00
2022-08-30T06:09:42.048Z,97351.19
2022-08-30T06:12:08.903Z,97348.53
2022-08-30T06:14:35.623Z,97352.91
2022-08-30T06:17:02.219Z,97345.56
2022-08-30T06:19:28.860Z,97342.09
2022-08-30T06:21:55.679Z,97334.84
2022-08-30T06:24:31.290Z,97347.38
2022-08-30T06:27:10.750Z,97343.63
2022-08-30T06:29:37.477Z,97353.28
2022-08-30T06:32:04.153Z,97344.50
2022-08-30T06:34:30.943Z,97340.69
2022-08-30T06:36:57.522Z,97337.38
2022-08-30T06:39:24.204Z,97344.06
2022-08-30T06:41:50.803Z,97346.69
2022-08-30T06:44:17.720Z,97337.38
2022-08-30T06:46:44.522Z,97347.59
2022-08-30T06:49:11.461Z,97346.22
2022-08-30T06:51:39.727Z,97341.28
2022-08-30T06:54:09.274Z,97347.47
2022-08-30T06:56:37.846Z,97347.47
2022-08-30T06:59:05.379Z,97345.53
2022-08-30T07:01:32.304Z,97343.25
2022-08-30T07:04:01.109Z,97347.94
2022-08-30T07:06:29.660Z,97346.53
2022-08-30T07:08:56.674Z,97346.94
2022-08-30T07:11:35.021Z,97346.13
2022-08-30T07:14:02.901Z,97345.13
2022-08-30T07:16:29.727Z,97343.66
2022-08-30T07:18:58.794Z,97338.25
2022-08-30T07:21:43.798Z,97350.00
2022-08-30T07:24:11.170Z,97352.91
2022-08-30T07:26:41.381Z,97341.91
2022-08-30T07:29:08.351Z,97345.31
2022-08-30T07:31:36.251Z,97344.84
2022-08-30T07:34:05.199Z,97357.44
2022-08-30T07:36:32.076Z,97353.97
2022-08-30T07:38:58.858Z,97347.63
2022-08-30T07:41:31.587Z,97349.91
2022-08-30T07:43:58.775Z,97339.09
2022-08-30T07:46:25.984Z,97342.38
2022-08-30T07:48:54.391Z,97344.06
2022-08-30T07:51:24.037Z,97335.06
2022-08-30T07:53:51.119Z,97337.47
2022-08-30T07:56:17.600Z,97330.41
2022-08-30T07:58:44.262Z,97335.19
2022-08-30T08:01:12.731Z,97334.25
2022-08-30T08:03:41.048Z,97326.69
2022-08-30T08:06:09.719Z,97326.06
2022-08-30T08:08:37.538Z,97315.66
2022-08-30T08:11:16.395Z,97323.13
2022-08-30T08:13:52.953Z,97320.16
2022-08-30T08:16:23.604Z,97325.78
2022-08-30T08:18:50.509Z,97323.69
2022-08-30T08:21:17.258Z,97327.75
2022-08-30T08:23:44.302Z,97324.31
2022-08-30T08:26:11.488Z,97317.47
2022-08-30T08:28:38.069Z,97319.69
2022-08-30T08:31:17.864Z,97326.69
2022-08-30T08:33:44.987Z,97317.22
2022-08-30T08:36:11.648Z,97317.72
2022-08-30T08:38:38.253Z,97321.59
2022-08-30T08:41:21.240Z,97321.78
2022-08-30T08:43:48.014Z,97327.13
2022-08-30T08:46:15.402Z,97321.59
2022-08-30T08:49:05.242Z,97317.09
2022-08-30T08:51:58.562Z,97310.78
2022-08-30T08:54:34.048Z,97315.19
2022-08-30T08:57:00.973Z,97322.81
2022-08-30T08:59:27.680Z,97316.88
2022-08-30T09:01:58.633Z,97315.31
2022-08-30T09:04:33.942Z,97320.16
2022-08-30T09:07:00.520Z,97320.38
2022-08-30T09:09:32.989Z,97314.03
2022-08-30T09:11:59.895Z,97314.03
2022-08-30T09:14:32.974Z,97306.50
2022-08-30T09:17:09.431Z,97303.81
2022-08-30T09:19:52.196Z,97308.03
2022-08-30T09:22:33.877Z,97306.88
2022-08-30T09:25:32.491Z,97308.03
2022-08-30T09:28:14.597Z,97301.47
2022-08-30T09:31:11.922Z,97311.47
2022-08-30T09:33:39.317Z,97309.91
2022-08-30T09:36:28.163Z,97307.97
2022-08-30T09:39:29.387Z,97304.41
2022-08-30T09:42:21.201Z,97298.41
2022-08-30T09:44:48.213Z,97292.47
2022-08-30T09:47:24.237Z,97294.34
2022-08-30T09:50:04.492Z,97286.44
2022-08-30T09:52:55.561Z,97278.75
2022-08-30T09:55:55.168Z,97277.16
2022-08-30T09:58:39.771Z,97278.09
2022-08-30T10:01:09.128Z,97281.34
2022-08-30T10:03:40.453Z,97270.94
2022-08-30T10:06:23.080Z,97289.03
2022-08-30T10:09:03.847Z,97278.63
2022-08-30T10:11:51.651Z,97275.00
2022-08-30T10:14:42.050Z,97273.84
2022-08-30T10:17:19.976Z,97279.28
2022-08-30T10:20:13.634Z,97281.28
2022-08-30T10:23:00.183Z,97288.66
2022-08-30T10:25:30.783Z,97287.53
2022-08-30T10:28:14.654Z,97284.81
2022-08-30T10:30:50.095Z,97290.03
2022-08-30T10:33:22.981Z,97283.28
2022-08-30T10:35:58.357Z,97289.72
2022-08-30T10:38:33.491Z,97286.06
2022-08-30T10:41:13.446Z,97280.66
2022-08-30T10:43:39.949Z,97273.00
2022-08-30T10:46:16.349Z,97268.69
2022-08-30T10:48:47.457Z,97266.03
2022-08-30T10:51:25.813Z,97266.81
2022-08-30T10:54:01.847Z,97271.81
2022-08-30T10:56:29.650Z,97268.75
2022-08-30T10:58:59.749Z,97260.97
2022-08-30T11:02:14.477Z,97257.06
2022-08-30T11:05:00.711Z,97261.81
2022-08-30T11:07:42.839Z,97259.69
2022-08-30T11:10:33.852Z,97264.94
2022-08-30T11:13:09.820Z,97267.25
2022-08-30T11:15:58.375Z,97263.38
2022-08-30T11:18:28.625Z,97274.94
2022-08-30T11:21:21.032Z,97278.03
2022-08-30T11:23:59.527Z,97274.16
2022-08-30T11:26:50.927Z,97271.84
2022-08-30T11:29:30.102Z,97268.06
2022-08-30T11:32:20.905Z,97267.97
2022-08-30T11:34:47.497Z,97264.22
2022-08-30T11:37:37.063Z,97276.13
2022-08-30T11:40:26.316Z,97270.25
2022-08-30T11:42:55.551Z,97265.28
2022-08-30T11:45:22.110Z,97276.00
2022-08-30T11:47:59.511Z,97278.41
2022-08-30T11:50:48.278Z,97275.81
2022-08-30T11:53:27.085Z,97265.06
2022-08-30T11:56:15.606Z,97268.53
2022-08-30T11:59:17.634Z,97270.34
2022-08-30T12:01:50.878Z,97266.13
2022-08-30T12:04:19.730Z,97259.84
2022-08-30T12:06:50.915Z,97258.28
2022-08-30T12:09:23.296Z,97263.59
2022-08-30T12:11:55.936Z,97270.41
2022-08-30T12:14:55.136Z,97277.97
2022-08-30T12:17:40.255Z,97275.66
2022-08-30T12:20:29.465Z,97274.75
2022-08-30T12:22:57.194Z,97274.88
2022-08-30T12:25:28.613Z,97273.84
2022-08-30T12:28:29.678Z,97266.44
2022-08-30T12:31:07.711Z,97264.63
2022-08-30T12:33:42.502Z,97273.50
2022-08-30T12:36:50.956Z,97266.78
2022-08-30T12:39:22.763Z,97254.78
2022-08-30T12:41:49.535Z,97269.38
2022-08-30T12:44:20.589Z,97272.25
2022-08-30T12:46:50.613Z,97275.72
2022-08-30T12:49:19.942Z,97279.13
2022-08-30T12:51:47.462Z,97274.78
2022-08-30T12:54:22.939Z,97272.88
2022-08-30T12:57:19.154Z,97286.66
2022-08-30T12:59:59.824Z,97278.19
2022-08-30T13:02:42.985Z,97283.03
2022-08-30T13:05:45.502Z,97284.25
2022-08-30T13:08:22.491Z,97284.03
2022-08-30T13:11:08.336Z,97280.53
2022-08-30T13:13:44.264Z,97279.75
2022-08-30T13:16:24.838Z,97281.84
2022-08-30T13:18:56.545Z,97279.19
2022-08-30T13:21:34.319Z,97272.13
2022-08-30T13:24:06.537Z,97278.97
2022-08-30T13:26:37.074Z,97278.19
2022-08-30T13:29:14.100Z,97279.63
2022-08-30T13:31:40.805Z,97277.53
2022-08-30T13:34:07.611Z,97282.03
2022-08-30T13:36:46.013Z,97278.97
2022-08-30T13:39:13.915Z,97275.88
2022-08-30T13:41:40.839Z,97273.88
2022-08-30T13:44:12.244Z,97281.84
2022-08-30T13:46:43.024Z,97279.41
2022-08-30T13:52:20.454Z,97271.78
2022-08-30T13:54:52.134Z,97264.38
2022-08-30T14:00:15.247Z,97264.81
2022-08-30T14:02:46.396Z,97256.13
2022-08-30T14:05:47.174Z,97255.53
2022-08-30T14:08:04.055Z,97258.75
2022-08-30T14:10:32.630Z,97257.63
2022-08-30T14:13:13.990Z,97262.81
2022-08-30T14:15:41.521Z,97254.41
2022-08-30T14:18:08.814Z,97255.63
2022-08-30T14:20:38.623Z,97252.44
2022-08-30T14:23:07.608Z,97245.56
2022-08-30T14:25:37.490Z,97247.59
2022-08-30T14:28:04.089Z,97246.81
2022-08-30T14:30:30.998Z,97247.59
2022-08-30T14:32:59.976Z,97242.50
2022-08-30T14:35:26.552Z,97230.13
2022-08-30T14:37:54.410Z,97228.56
2022-08-30T14:40:21.561Z,97224.16
2022-08-30T14:42:48.056Z,97216.69
2022-08-30T14:45:14.911Z,97226.63
2022-08-30T14:47:41.768Z,97223.28
2022-08-30T14:50:09.144Z,97215.47
2022-08-30T14:52:36.177Z,97219.72
2022-08-30T14:55:08.912Z,97214.53
2022-08-30T14:57:38.335Z,97207.84
2022-08-30T15:00:08.578Z,97198.81
2022-08-30T15:02:35.582Z,97185.78
2022-08-30T15:05:02.336Z,97182.97
2022-08-30T15:07:28.992Z,97176.97
2022-08-30T15:09:55.576Z,97172.75
2022-08-30T15:12:22.223Z,97164.31
2022-08-30T15:14:48.944Z,97159.34
2022-08-30T15:17:17.968Z,97152.84
2022-08-30T15:19:44.782Z,97152.41
2022-08-30T15:22:11.509Z,97143.16
2022-08-30T15:24:38.266Z,97148.06
2022-08-30T15:27:05.099Z,97146.50
2022-08-30T15:29:33.217Z,97142.53
2022-08-30T15:32:01.466Z,97142.53
2022-08-30T15:34:28.978Z,97137.41
2022-08-30T15:36:56.065Z,97136.31
2022-08-30T15:39:22.929Z,97141.13
2022-08-30T15:41:54.739Z,97147.09
2022-08-30T15:44:25.512Z,97144.63
2022-08-30T15:46:52.301Z,97151.72
2022-08-30T15:49:21.064Z,97158.59
2022-08-30T15:51:49.340Z,97156.06
2022-08-30T15:54:20.712Z,97145.47
2022-08-30T15:56:48.329Z,97146.94
2022-08-30T15:59:15.536Z,97141.72
2022-08-30T16:01:43.752Z,97140.28
2022-08-30T16:04:11.060Z,97127.03
2022-08-30T16:06:39.315Z,97129.59
2022-08-30T16:09:07.469Z,97130.63
2022-08-30T16:11:34.873Z,97130.19
2022-08-30T16:14:02.029Z,97122.84
2022-08-30T16:16:28.692Z,97125.50
2022-08-30T16:18:55.483Z,97126.53
2022-08-30T16:21:31.034Z,97126.16
2022-08-30T16:24:00.465Z,97135.56
2022-08-30T16:26:28.799Z,97138.09
2022-08-30T16:28:56.417Z,97147.16
2022-08-30T16:31:25.008Z,97150.69
2022-08-30T16:33:54.009Z,97152.78
2022-08-30T16:36:24.970Z,97165.94
2022-08-30T16:38:57.430Z,97177.41
2022-08-30T16:41:24.915Z,97170.97
2022-08-30T16:43:53.299Z,97181.03
2022-08-30T16:46:22.896Z,97174.84
2022-08-30T16:48:50.302Z,97175.50
2022-08-30T16:51:22.506Z,97178.03
2022-08-30T16:53:49.543Z,97181.03
2022-08-30T16:56:19.921Z,97182.66
2022-08-30T16:58:48.022Z,97189.19
2022-08-30T17:01:15.094Z,97192.59
2022-08-30T17:03:44.139Z,97191.50
2022-08-30T17:06:10.891Z,97194.47
2022-08-30T17:08:37.605Z,97196.78
2022-08-30T17:11:06.605Z,97191.84
2022-08-30T17:13:35.733Z,97180.66
2022-08-30T17:16:04.743Z,97180.22
2022-08-30T17:18:32.316Z,97187.28
2022-08-30T17:20:58.992Z,97193.88
2022-08-30T17:23:25.607Z,97189.25
2022-08-30T17:25:52.992Z,97193.88
2022-08-30T17:28:20.038Z,97199.72
2022-08-30T17:30:48.728Z,97198.72
2022-08-30T17:33:17.871Z,97197.94
2022-08-30T17:35:44.784Z,97200.13
2022-08-30T17:38:12.178Z,97200.13
2022-08-30T17:40:38.824Z,97212.13
2022-08-30T17:43:08.015Z,97198.88
2022-08-30T17:45:34.982Z,97212.22
2022-08-30T17:48:01.896Z,97207.66
2022-08-30T17:50:28.654Z,97210.41
2022-08-30T17:53:00.276Z,97218.44
2022-08-30T17:55:28.405Z,97217.38
2022-08-30T17:57:57.549Z,97230.34
2022-08-30T18:00:27.349Z,97219.06
2022-08-30T18:02:54.016Z,97215.69
2022-08-30T18:05:24.407Z,97225.91
2022-08-30T18:07:51.953Z,97217.53
2022-08-30T18:10:18.740Z,97211.34
2022-08-30T18:12:45.310Z,97218.38
2022-08-30T18:15:12.872Z,97214.16
2022-08-30T18:17:44.399Z,97228.25
2022-08-30T18:20:11.769Z,97235.81
2022-08-30T18:22:38.580Z,97230.03
2022-08-30T18:25:06.511Z,97237.63
2022-08-30T18:27:33.315Z,97233.56
2022-08-30T18:30:07.765Z,97229.78
2022-08-30T18:32:38.695Z,97235.19
2022-08-30T18:35:06.385Z,97233.72
2022-08-30T18:37:32.923Z,97241.97
2022-08-30T18:40:00.063Z,97248.16
2022-08-30T18:42:27.693Z,97247.84
2022-08-30T18:44:54.439Z,97251.34
2022-08-30T18:47:23.121Z,97257.06
2022-08-30T18:49:50.453Z,97248.03
2022-08-30T18:52:17.132Z,97252.47
2022-08-30T18:54:52.700Z,97250.75
2022-08-30T18:57:20.262Z,97254.38
2022-08-30T18:59:47.481Z,97258.19
2022-08-30T19:02:15.107Z,97258.66
2022-08-30T19:04:43.561Z,97249.53
2022-08-30T19:07:14.996Z,97264.84
2022-08-30T19:09:42.031Z,97258.78
2022-08-30T19:12:11.670Z,97255.56
2022-08-30T19:14:39.185Z,97259.84
2022-08-30T19:17:07.192Z,97258.78
2022-08-30T19:19:34.741Z,97248.47
2022-08-30T19:22:01.924Z,97254.44
2022-08-30T19:24:28.553Z,97248.72
2022-08-30T19:26:55.645Z,97253.91
2022-08-30T19:29:22.318Z,97249.03
2022-08-30T19:31:51.716Z,97244.06
2022-08-30T19:34:19.097Z,97243.78
2022-08-30T19:36:45.703Z,97238.66
2022-08-30T19:39:14.041Z,97239.75
2022-08-30T19:41:41.597Z,97251.78
2022-08-30T19:44:08.218Z,97252.88
2022-08-30T19:46:36.458Z,97255.72
2022-08-30T19:49:05.108Z,97247.22
2022-08-30T19:51:31.802Z,97245.72
2022-08-30T19:54:00.261Z,97261.84
2022-08-30T19:56:26.998Z,97254.63
2022-08-30T19:58:53.755Z,97255.19
2022-08-30T20:01:33.485Z,97254.94
2022-08-30T20:04:04.203Z,97254.44
2022-08-30T20:06:32.078Z,97256.31
2022-08-30T20:09:00.461Z,97249.84
2022-08-30T20:11:28.435Z,97256.38
2022-08-30T20:13:55.334Z,97259.81
2022-08-30T20:16:22.226Z,97259.63
2022-08-30T20:19:04.803Z,97262.28
2022-08-30T20:21:32.904Z,97253.28
2022-08-30T20:24:00.903Z,97251.53
2022-08-30T20:26:33.926Z,97246.38
2022-08-30T20:29:02.560Z,97249.75
2022-08-30T20:31:29.597Z,97249.59
2022-08-30T20:33:56.267Z,97243.88
2022-08-30T20:36:22.921Z,97249.81
2022-08-30T20:38:49.517Z,97251.09
2022-08-30T20:41:17.583Z,97256.03
2022-08-30T20:43:45.445Z,97253.97
2022-08-30T20:46:18.075Z,97255.75
2022-08-30T20:48:46.375Z,97256.81
2022-08-30T20:51:16.739Z,97255.25
2022-08-30T20:53:44.352Z,97250.59
2022-08-30T20:56:13.774Z,97257.38
2022-08-30T20:58:40.353Z,97251.66
2022-08-30T21:01:10.009Z,97259.72
2022-08-30T21:03:37.988Z,97262.09
2022-08-30T21:06:04.983Z,97268.84
2022-08-30T21:08:31.562Z,97268.09
2022-08-30T21:10:58.178Z,97262.88
2022-08-30T21:13:24.841Z,97255.38
2022-08-30T21:15:53.173Z,97265.53
2022-08-30T21:18:21.622Z,97264.78
2022-08-30T21:20:48.253Z,97259.56
2022-08-30T21:23:15.046Z,97263.75
2022-08-30T21:25:41.983Z,97260.16
2022-08-30T21:28:09.057Z,97264.81
2022-08-30T21:30:36.904Z,97268.97
2022-08-30T21:33:04.870Z,97258.06
2022-08-30T21:35:51.425Z,97269.00
2022-08-30T21:38:19.187Z,97262.53
2022-08-30T21:40:46.343Z,97265.91
2022-08-30T21:43:12.979Z,97258.66
2022-08-30T21:45:44.107Z,97251.38
2022-08-30T21:48:12.409Z,97248.78
2022-08-30T21:50:41.056Z,97252.44
2022-08-30T21:53:07.777Z,97251.16
2022-08-30T21:55:34.429Z,97251.72
2022-08-30T21:58:01.061Z,97236.97
2022-08-30T22:00:27.720Z,97252.53
2022-08-30T22:02:54.662Z,97250.72
2022-08-30T22:05:21.357Z,97254.88
2022-08-30T22:07:47.960Z,97255.16
2022-08-30T22:10:14.595Z,97255.13
2022-08-30T22:12:41.367Z,97251.53
2022-08-30T22:15:09.361Z,97265.75
2022-08-30T22:17:36.179Z,97260.31
2022-08-30T22:20:04.222Z,97257.72
2022-08-30T22:22:30.824Z,97253.06
2022-08-30T22:24:57.410Z,97257.22
2022-08-30T22:27:24.052Z,97252.03
2022-08-30T22:29:50.667Z,97252.81
2022-08-30T22:32:17.415Z,97247.63
2022-08-30T22:34:47.079Z,97254.13
2022-08-30T22:37:13.815Z,97250.22
2022-08-30T22:39:40.394Z,97254.38
2022-08-30T22:42:07.809Z,97256.44
2022-08-30T22:44:34.507Z,97248.69
2022-08-30T22:47:01.680Z,97241.66
2022-08-30T22:49:28.339Z,97241.66
2022-08-30T22:51:54.901Z,97234.94
2022-08-30T22:54:21.938Z,97235.47
2022-08-30T22:56:49.938Z,97230.28
2022-08-30T22:59:16.583Z,97232.59
2022-08-30T23:01:43.654Z,97236.75
2022-08-30T23:04:11.782Z,97235.72
2022-08-30T23:06:39.216Z,97237.03
2022-08-30T23:09:07.118Z,97230.28
2022-08-30T23:11:34.703Z,97225.38
2022-08-30T23:14:03.150Z,97224.06
2022-08-30T23:16:29.997Z,97224.84
2022-08-30T23:18:56.690Z,97220.69
2022-08-30T23:21:27.275Z,97225.63
2022-08-30T23:24:13.960Z,97220.19
2022-08-30T23:27:01.382Z,97223.03
2022-08-30T23:29:48.327Z,97215.00
2022-08-30T23:32:33.275Z,97226.66
2022-08-30T23:35:18.571Z,97218.38
2022-08-30T23:38:05.296Z,97219.94
2022-08-30T23:40:50.589Z,97219.44
2022-08-30T23:43:35.652Z,97217.34
2022-08-30T23:46:21.110Z,97218.38
2022-08-30T23:49:07.920Z,97223.56
2022-08-30T23:51:54.503Z,97215.81
2022-08-30T23:54:39.730Z,97223.03
2022-08-30T23:57:25.352Z,97214.75
